Time;durP1;ratioP1;P1;durP2;ratioP2;P2;SDS_P1;SDS_P2;PMS_P1;PMS_P2;Temp;Humidity;BMP_temperature;BMP_pressure;BME280_temperature;BME280_humidity;BME280_pressure;Samples;Min_cycle;Max_cycle;Signal;HPM_P1;HPM_P2
2022/09/27 00:00:27;;;;;;;;;2.00;1.00;;;;;11.53;71.78;99582.16;5078456;27;46480;-80
2022/09/27 00:02:52;;;;;;;;;0.00;0.00;;;;;11.28;72.02;99539.94;5093876;27;45484;-81
2022/09/27 00:05:19;;;;;;;;;1.00;1.00;;;;;11.49;72.00;99567.31;5095163;27;45342;-82
2022/09/27 00:07:44;;;;;;;;;0.50;0.50;;;;;11.53;72.31;99574.22;5077262;27;45370;-81
2022/09/27 00:10:11;;;;;;;;;1.50;1.00;;;;;11.49;72.24;99568.19;5093613;27;45703;-81
2022/09/27 00:12:37;;;;;;;;;1.00;1.00;;;;;11.40;72.42;99552.66;5095331;27;45484;-81
2022/09/27 00:15:04;;;;;;;;;0.00;0.00;;;;;11.51;72.52;99573.44;5080019;27;45382;-81
2022/09/27 00:17:29;;;;;;;;;4.00;1.00;;;;;11.47;72.26;99575.31;5095992;27;45509;-81
2022/09/27 00:19:57;;;;;;;;;1.00;1.00;;;;;11.30;72.49;99541.59;5094141;27;45792;-80
2022/09/27 00:22:23;;;;;;;;;1.00;1.00;;;;;11.49;72.15;99572.63;5095590;27;45427;-81
2022/09/27 00:24:49;;;;;;;;;1.25;1.25;;;;;11.44;72.12;99564.84;5094667;27;45337;-81
2022/09/27 00:27:15;;;;;;;;;3.00;1.00;;;;;11.45;72.40;99561.31;5075807;27;45370;-79
2022/09/27 00:29:40;;;;;;;;;1.00;1.00;;;;;11.33;72.61;99551.22;5077749;27;47669;-80
2022/09/27 00:32:06;;;;;;;;;1.75;1.75;;;;;11.41;72.95;99580.84;5097066;27;45351;-82
2022/09/27 00:34:31;;;;;;;;;3.50;0.75;;;;;11.36;73.38;99585.47;5101351;27;45417;-81
2022/09/27 00:36:57;;;;;;;;;1.50;1.00;;;;;11.21;73.47;99571.06;5115214;27;45639;-81
2022/09/27 00:39:22;;;;;;;;;1.50;1.50;;;;;10.95;73.74;99527.09;5114560;27;45327;-81
2022/09/27 00:41:47;;;;;;;;;0.00;0.00;;;;;11.34;73.98;99601.41;5092907;27;45654;-81
2022/09/27 00:44:25;;;;;;;;;1.25;1.00;;;;;11.37;74.52;99601.28;5093711;27;45358;-80
2022/09/27 00:47:16;;;;;;;;;2.50;1.25;;;;;11.38;74.67;99604.78;5094966;27;45332;-81
2022/09/27 00:49:46;;;;;;;;;2.00;2.00;;;;;11.37;74.46;99598.66;5095059;27;45427;-81
2022/09/27 00:52:17;;;;;;;;;2.50;1.00;;;;;11.14;74.48;99559.81;5079618;27;45461;-82
2022/09/27 00:54:47;;;;;;;;;2.00;1.00;;;;;11.09;74.61;99561.81;5076295;27;45430;-80
2022/09/27 00:57:12;;;;;;;;;0.50;0.50;;;;;11.29;74.51;99599.84;5077440;27;45549;-81
2022/09/27 00:59:42;;;;;;;;;1.75;1.75;;;;;11.31;75.02;99608.59;5095839;27;46072;-81
2022/09/27 01:02:08;;;;;;;;;0.75;0.75;;;;;11.16;74.81;99587.09;5094318;27;45436;-81
2022/09/27 01:04:37;;;;;;;;;1.75;1.00;;;;;11.10;75.10;99587.34;5096325;27;45577;-83
2022/09/27 01:07:03;;;;;;;;;3.75;1.25;;;;;11.24;75.38;99622.97;5115041;27;45562;-81
2022/09/27 01:09:28;;;;;;;;;2.50;1.00;;;;;11.20;75.21;99615.16;5096038;27;46269;-79
2022/09/27 01:12:10;;;;;;;;;0.00;0.00;;;;;11.15;75.83;99609.16;5109864;27;45374;-80
2022/09/27 01:14:35;;;;;;;;;1.25;0.50;;;;;11.16;75.62;99613.56;5080056;27;45465;-80
2022/09/27 01:17:30;;;;;;;;;2.50;2.50;;;;;11.08;75.71;99598.88;5077517;27;45676;-80
2022/09/27 01:20:36;;;;;;;;;1.00;1.00;;;;;11.16;75.56;99612.69;5038421;28;45431;-84
2022/09/27 01:23:10;;;;;;;;;1.25;0.00;;;;;11.12;75.57;99614.56;5027533;28;45484;-81
2022/09/27 01:25:54;;;;;;;;;0.50;0.50;;;;;11.11;75.24;99615.47;5037278;28;45598;-81
2022/09/27 01:28:47;;;;;;;;;0.00;0.00;;;;;11.12;75.09;99619.88;5034466;28;45283;-80
2022/09/27 01:31:35;;;;;;;;;1.00;1.00;;;;;11.10;75.43;99619.06;5033816;28;46161;-81
2022/09/27 01:34:03;;;;;;;;;4.00;1.50;;;;;11.07;75.70;99613.00;5006498;28;45779;-82
2022/09/27 01:36:40;;;;;;;;;0.75;0.75;;;;;10.97;75.40;99601.94;5036601;28;45299;-81
2022/09/27 01:39:31;;;;;;;;;4.00;1.00;;;;;11.07;75.32;99615.66;5044140;28;45343;-82
2022/09/27 01:42:11;;;;;;;;;2.50;1.00;;;;;10.99;75.09;99615.94;5044226;28;45528;-81
2022/09/27 01:44:42;;;;;;;;;1.00;1.00;;;;;11.07;75.54;99624.47;5044245;28;45477;-82
2022/09/27 01:47:16;;;;;;;;;2.00;0.00;;;;;10.81;75.32;99586.63;5035042;28;45555;-82
2022/09/27 01:49:52;;;;;;;;;4.00;2.00;;;;;10.97;75.38;99601.94;5033747;28;45610;-81
2022/09/27 01:52:24;;;;;;;;;0.00;0.00;;;;;10.95;75.76;99609.91;5032812;28;45566;-83
2022/09/27 01:54:55;;;;;;;;;0.00;0.00;;;;;10.92;75.92;99612.69;5035073;28;45473;-81
2022/09/27 01:57:26;;;;;;;;;1.00;0.00;;;;;10.95;75.69;99617.84;5081835;27;45423;-81
2022/09/27 01:59:58;;;;;;;;;2.00;1.00;;;;;10.92;75.97;99619.75;5097799;27;45442;-81
2022/09/27 02:02:27;;;;;;;;;2.00;1.00;;;;;10.89;76.00;99617.22;5093824;27;46616;-79
2022/09/27 02:04:57;;;;;;;;;1.25;1.25;;;;;10.51;76.01;99558.66;5112051;27;45516;-81
2022/09/27 02:07:30;;;;;;;;;0.75;0.75;;;;;10.91;76.13;99633.88;5092963;27;45394;-81
2022/09/27 02:10:08;;;;;;;;;2.50;0.50;;;;;10.69;76.33;99592.38;5095868;27;45255;-81
2022/09/27 02:12:41;;;;;;;;;0.00;0.00;;;;;10.87;76.19;99626.97;5078637;27;45389;-81
2022/09/27 02:15:11;;;;;;;;;1.50;0.00;;;;;10.77;76.12;99616.72;5097033;27;45401;-81
2022/09/27 02:17:49;;;;;;;;;1.00;1.00;;;;;10.78;76.55;99622.88;5096171;27;45528;-80
2022/09/27 02:20:37;;;;;;;;;2.00;1.00;;;;;10.82;76.64;99619.22;5096962;27;45509;-81
2022/09/27 02:23:21;;;;;;;;;3.25;1.00;;;;;10.80;76.58;99606.03;5096092;27;46286;-80
2022/09/27 02:25:56;;;;;;;;;1.75;1.00;;;;;10.63;76.80;99592.59;5078638;27;45525;-81
2022/09/27 02:28:38;;;;;;;;;1.00;1.00;;;;;10.74;76.82;99608.91;5088063;27;45356;-83
2022/09/27 02:31:04;;;;;;;;;1.50;1.00;;;;;10.72;76.70;99605.47;5073431;28;45567;-81
2022/09/27 02:33:40;;;;;;;;;0.00;0.00;;;;;10.08;76.87;99498.50;5087327;27;45382;-81
2022/09/27 02:36:06;;;;;;;;;0.75;0.75;;;;;10.72;76.91;99613.41;5094609;27;45412;-82
2022/09/27 02:38:32;;;;;;;;;1.00;1.00;;;;;10.70;77.27;99614.38;5095380;27;45365;-81
2022/09/27 02:40:57;;;;;;;;;0.00;0.00;;;;;10.48;77.39;99581.63;5095879;27;45413;-81
2022/09/27 02:43:28;;;;;;;;;1.50;1.50;;;;;10.42;77.33;99576.56;5093489;27;45631;-80
2022/09/27 02:46:16;;;;;;;;;0.50;0.50;;;;;10.66;77.44;99611.84;5095903;27;45412;-81
2022/09/27 02:49:09;;;;;;;;;0.25;0.25;;;;;10.64;77.49;99620.72;5080219;27;45275;-81
2022/09/27 02:52:36;;;;;;;;;2.75;1.25;;;;;10.60;77.67;99617.34;5077623;27;45602;-81
2022/09/27 02:55:10;;;;;;;;;0.00;0.00;;;;;10.62;77.90;99614.63;5030007;28;46425;-81
2022/09/27 02:57:42;;;;;;;;;1.00;1.00;;;;;10.56;77.94;99601.66;5099509;27;45523;-80
2022/09/27 03:00:12;;;;;;;;;1.25;1.00;;;;;10.34;78.39;99570.72;5097314;27;45447;-81
2022/09/27 03:02:47;;;;;;;;;2.00;0.00;;;;;10.34;78.44;99576.00;5116606;27;45452;-81
2022/09/27 03:05:18;;;;;;;;;1.00;1.00;;;;;10.37;78.41;99575.88;5085807;27;46181;-81
2022/09/27 03:07:44;;;;;;;;;1.00;1.00;;;;;10.59;78.60;99612.97;5086207;27;45559;-81
2022/09/27 03:10:22;;;;;;;;;4.25;0.75;;;;;10.63;78.60;99619.03;5089254;27;45487;-81
2022/09/27 03:12:49;;;;;;;;;3.50;1.00;;;;;10.39;78.55;99574.03;5075623;28;45574;-81
2022/09/27 03:15:14;;;;;;;;;0.25;0.25;;;;;10.63;78.80;99611.09;5094147;27;45412;-81
2022/09/27 03:17:40;;;;;;;;;0.00;0.00;;;;;10.61;78.85;99611.16;5081875;27;45516;-81
2022/09/27 03:20:05;;;;;;;;;1.00;0.00;;;;;10.45;79.11;99581.75;5084115;27;45482;-81
2022/09/27 03:22:31;;;;;;;;;1.75;1.00;;;;;10.59;79.55;99597.09;5097120;27;45650;-81
2022/09/27 03:24:57;;;;;;;;;0.00;0.00;;;;;10.48;79.16;99586.91;5096097;27;46286;-81
2022/09/27 03:27:22;;;;;;;;;0.75;0.75;;;;;10.52;79.31;99584.16;5092707;27;45567;-81
2022/09/27 03:29:48;;;;;;;;;0.25;0.25;;;;;10.47;79.49;99581.69;5096178;27;45371;-82
2022/09/27 03:32:13;;;;;;;;;2.50;1.00;;;;;10.57;79.31;99598.94;5096063;27;45480;-81
2022/09/27 03:34:38;;;;;;;;;0.75;0.75;;;;;10.63;79.17;99603.16;5094495;27;46422;-81
2022/09/27 03:37:04;;;;;;;;;1.00;1.00;;;;;10.51;79.10;99582.44;5094698;27;45394;-80
2022/09/27 03:39:29;;;;;;;;;0.75;0.75;;;;;10.61;78.93;99599.69;5101017;27;45302;-82
2022/09/27 03:41:55;;;;;;;;;1.25;1.00;;;;;10.69;79.17;99608.22;5095270;27;45465;-81
2022/09/27 03:44:20;;;;;;;;;0.00;0.00;;;;;10.73;79.52;99608.97;5095503;27;45676;-81
2022/09/27 03:46:46;;;;;;;;;0.25;0.00;;;;;10.69;79.99;99602.94;5102727;27;45657;-82
2022/09/27 03:49:11;;;;;;;;;1.75;1.00;;;;;10.70;79.94;99598.50;5097503;27;45461;-81
2022/09/27 03:51:36;;;;;;;;;1.00;1.00;;;;;10.68;79.61;99589.78;5116469;27;45306;-80
2022/09/27 03:54:02;;;;;;;;;1.50;1.00;;;;;10.70;80.15;99598.50;5115505;27;45324;-82
2022/09/27 03:56:27;;;;;;;;;0.50;0.50;;;;;10.73;79.66;99604.53;5079742;27;45505;-81
2022/09/27 03:58:52;;;;;;;;;2.00;0.00;;;;;10.69;79.65;99608.22;5095074;27;45521;-81
2022/09/27 04:01:18;;;;;;;;;0.00;0.00;;;;;10.74;79.72;99608.91;5095107;27;45585;-81
2022/09/27 04:03:44;;;;;;;;;0.00;0.00;;;;;10.77;79.49;99610.59;5094614;27;45466;-81
2022/09/27 04:06:10;;;;;;;;;2.00;1.00;;;;;10.73;79.64;99590.47;5083338;27;45418;-81
2022/09/27 04:08:35;;;;;;;;;0.00;0.00;;;;;10.75;79.62;99602.72;5104454;27;45393;-80
2022/09/27 04:11:01;;;;;;;;;1.75;0.75;;;;;10.44;79.58;99552.75;5108465;27;45428;-81
2022/09/27 04:13:26;;;;;;;;;0.00;0.00;;;;;10.61;79.95;99582.06;5102652;27;45451;-81
2022/09/27 04:15:51;;;;;;;;;1.50;1.50;;;;;10.56;79.37;99581.38;5097244;27;45457;-81
2022/09/27 04:18:17;;;;;;;;;1.00;1.00;;;;;10.59;79.81;99580.41;5096575;27;45538;-80
2022/09/27 04:20:42;;;;;;;;;1.75;0.75;;;;;10.69;80.02;99589.72;5096085;27;45416;-81
2022/09/27 04:23:08;;;;;;;;;0.00;0.00;;;;;10.65;80.23;99585.47;5095553;27;47500;-82
2022/09/27 04:25:33;;;;;;;;;1.25;1.00;;;;;10.65;79.91;99599.53;5095008;27;45465;-80
2022/09/27 04:28:01;;;;;;;;;0.00;0.00;;;;;10.62;79.85;99590.84;5094608;27;45905;-80
2022/09/27 04:30:28;;;;;;;;;1.00;1.00;;;;;10.47;80.24;99561.41;5107648;27;45274;-82
2022/09/27 04:32:53;;;;;;;;;2.00;1.00;;;;;10.52;80.13;99573.59;5101187;27;45996;-82
2022/09/27 04:38:02;;;;;;;;;2.00;0.50;;;;;10.54;80.05;99575.28;5093673;27;45350;-81
2022/09/27 04:40:28;;;;;;;;;1.50;1.50;;;;;10.63;79.98;99592.59;5094178;27;45560;-80
2022/09/27 04:42:54;;;;;;;;;0.75;0.75;;;;;9.74;79.78;99446.88;5094303;27;46615;-81
2022/09/27 04:45:19;;;;;;;;;2.00;1.00;;;;;10.62;79.41;99582.94;5095600;27;45465;-81
2022/09/27 04:47:46;;;;;;;;;1.00;1.00;;;;;10.64;79.65;99599.59;5100606;27;45451;-82
2022/09/27 04:50:13;;;;;;;;;0.50;0.50;;;;;10.57;79.44;99576.97;5096104;27;45553;-81
2022/09/27 04:52:39;;;;;;;;;0.75;0.75;;;;;10.49;79.45;99564.88;5094726;27;45464;-81
2022/09/27 04:55:05;;;;;;;;;0.00;0.00;;;;;10.65;79.70;99588.09;5098785;27;45390;-82
2022/09/27 04:57:31;;;;;;;;;0.00;0.00;;;;;10.60;79.90;99582.13;5109743;27;45623;-81
2022/09/27 04:59:59;;;;;;;;;1.00;1.00;;;;;10.62;79.61;99575.00;5082485;27;45452;-81
2022/09/27 05:02:25;;;;;;;;;1.50;1.00;;;;;10.56;79.87;99569.94;5098428;27;45393;-81
2022/09/27 05:04:52;;;;;;;;;1.00;1.00;;;;;10.67;79.92;99594.19;5079839;27;45547;-81
2022/09/27 05:07:17;;;;;;;;;0.00;0.00;;;;;10.58;79.68;99573.38;5098550;27;45412;-82
2022/09/27 05:09:44;;;;;;;;;1.00;1.00;;;;;10.69;79.91;99592.38;5079434;27;45496;-83
2022/09/27 05:12:12;;;;;;;;;2.50;2.00;;;;;10.59;79.98;99564.53;5086215;27;46242;-81
2022/09/27 05:14:38;;;;;;;;;0.25;0.25;;;;;10.74;79.94;99589.56;5099053;27;44933;-81
2022/09/27 05:17:03;;;;;;;;;1.00;1.00;;;;;10.59;79.48;99565.41;5117816;27;45263;-82
2022/09/27 05:19:29;;;;;;;;;1.00;1.00;;;;;10.73;80.04;99578.09;5113866;27;45370;-81
2022/09/27 05:21:54;;;;;;;;;0.00;0.00;;;;;10.76;79.88;99591.22;5104450;27;46219;-81
2022/09/27 05:24:20;;;;;;;;;0.75;0.00;;;;;10.78;80.45;99593.78;5098146;27;45493;-82
2022/09/27 05:26:46;;;;;;;;;1.00;0.00;;;;;10.87;81.12;99616.41;5098916;27;45647;-81
2022/09/27 05:29:12;;;;;;;;;3.00;0.00;;;;;10.83;81.71;99605.94;5097582;27;45381;-82
2022/09/27 05:31:37;;;;;;;;;0.50;0.50;;;;;10.88;82.00;99604.91;5104371;27;45451;-83
2022/09/27 05:34:02;;;;;;;;;0.50;0.50;;;;;10.83;81.99;99590.06;5108614;27;44948;-81
2022/09/27 05:36:29;;;;;;;;;3.25;2.00;;;;;10.81;82.15;99586.63;5108911;27;45600;-81
2022/09/27 05:38:55;;;;;;;;;1.25;1.00;;;;;10.24;81.68;99496.16;5079735;28;45458;-82
2022/09/27 05:41:20;;;;;;;;;1.00;1.00;;;;;10.77;82.12;99585.00;5066628;27;45503;-82
2022/09/27 05:43:46;;;;;;;;;0.00;0.00;;;;;10.88;82.25;99605.75;5098403;27;46039;-82
2022/09/27 05:46:11;;;;;;;;;1.00;1.00;;;;;10.90;82.16;99616.28;5101006;27;45428;-82
2022/09/27 05:48:37;;;;;;;;;1.00;1.00;;;;;10.80;82.30;99594.63;5113077;27;45525;-81
2022/09/27 05:51:02;;;;;;;;;4.00;1.75;;;;;10.88;82.36;99596.97;5101013;27;46925;-81
2022/09/27 05:53:28;;;;;;;;;4.25;1.00;;;;;10.81;82.13;99585.75;5097154;27;45631;-81
2022/09/27 05:55:53;;;;;;;;;1.00;1.00;;;;;10.86;81.70;99586.47;5105912;27;45448;-81
2022/09/27 05:58:19;;;;;;;;;3.00;3.00;;;;;10.94;81.18;99591.47;5125491;27;45344;-83
2022/09/27 06:00:44;;;;;;;;;1.00;1.00;;;;;10.83;81.47;99568.06;5120313;27;45659;-82
2022/09/27 06:03:12;;;;;;;;;1.50;0.75;;;;;11.05;81.85;99605.13;5091239;27;45449;-82
2022/09/27 06:05:38;;;;;;;;;2.00;1.00;;;;;11.04;81.93;99582.28;5097506;27;45540;-81
2022/09/27 06:08:07;;;;;;;;;1.00;1.00;;;;;10.54;80.91;99487.25;5115916;27;45466;-82
2022/09/27 06:10:33;;;;;;;;;4.25;1.75;;;;;11.19;80.71;99589.63;5117273;27;46350;-82
2022/09/27 06:13:04;;;;;;;;;1.75;1.75;;;;;11.24;80.90;99578.03;5117894;27;45341;-81
2022/09/27 06:15:32;;;;;;;;;0.00;0.00;;;;;11.81;77.92;99558.09;5096426;27;45511;-82
2022/09/27 06:18:11;;;;;;;;;1.50;1.50;;;;;12.43;75.69;99585.53;5095850;27;45469;-81
2022/09/27 06:20:38;;;;;;;;;1.00;0.00;;;;;12.39;74.65;99594.53;5097234;27;45720;-83
2022/09/27 06:23:10;;;;;;;;;1.50;1.50;;;;;12.22;74.91;99584.66;5097113;27;45367;-81
2022/09/27 06:25:37;;;;;;;;;0.00;0.00;;;;;12.23;75.38;99594.31;5099834;27;45420;-81
2022/09/27 06:28:03;;;;;;;;;1.25;1.00;;;;;12.16;75.63;99590.22;5106695;27;45405;-79
2022/09/27 06:30:29;;;;;;;;;1.50;1.00;;;;;12.03;74.80;99576.63;5097260;27;46619;-82
2022/09/27 06:32:59;;;;;;;;;1.75;1.75;;;;;12.14;75.61;99592.06;5096348;27;45563;-82
2022/09/27 06:35:26;;;;;;;;;1.25;1.25;;;;;12.16;76.02;99582.28;5077433;27;45333;-81
2022/09/27 06:37:52;;;;;;;;;0.75;0.75;;;;;12.13;75.46;99593.00;5088337;27;45496;-81
2022/09/27 06:40:18;;;;;;;;;1.00;1.00;;;;;11.97;75.76;99565.44;5084497;27;45576;-82
2022/09/27 06:42:44;;;;;;;;;0.00;0.00;;;;;11.64;75.74;99518.22;5093070;27;45430;-81
2022/09/27 06:45:09;;;;;;;;;1.75;1.00;;;;;12.00;75.85;99592.63;5089709;27;45454;-81
2022/09/27 06:47:37;;;;;;;;;2.00;2.00;;;;;11.66;76.20;99537.53;5076028;27;45620;-81
2022/09/27 06:50:04;;;;;;;;;0.75;0.50;;;;;11.92;76.04;99584.13;5056356;28;46450;-82
2022/09/27 06:52:30;;;;;;;;;2.75;0.00;;;;;11.86;76.30;99577.28;5095656;27;45616;-81
2022/09/27 06:54:56;;;;;;;;;4.00;2.00;;;;;11.90;76.59;99597.44;5103539;27;45497;-81
2022/09/27 07:00:25;;;;;;;;;0.50;0.50;;;;;11.31;76.54;99508.06;5092415;27;45796;-82
2022/09/27 07:02:57;;;;;;;;;1.00;1.00;;;;;11.90;76.46;99597.44;5104416;27;45438;-82
2022/09/27 07:05:24;;;;;;;;;0.75;0.75;;;;;11.84;76.39;99589.75;5099647;27;45405;-82
2022/09/27 07:07:52;;;;;;;;;1.00;1.00;;;;;11.86;76.00;99598.47;5104544;27;45607;-81
2022/09/27 07:10:17;;;;;;;;;1.00;1.00;;;;;11.89;75.89;99606.28;5108917;27;46647;-82
2022/09/27 07:12:46;;;;;;;;;1.00;1.00;;;;;11.62;76.36;99562.41;5102920;27;45356;-81
2022/09/27 07:15:11;;;;;;;;;1.00;1.00;;;;;11.80;76.42;99588.13;5081961;27;45627;-82
2022/09/27 07:17:37;;;;;;;;;1.75;0.50;;;;;11.85;75.88;99591.44;5076874;27;45641;-82
2022/09/27 07:20:02;;;;;;;;;0.00;0.00;;;;;11.85;76.24;99598.53;5089396;27;46191;-81
2022/09/27 07:22:29;;;;;;;;;1.25;1.25;;;;;11.93;75.59;99614.16;5096140;27;45487;-83
2022/09/27 07:24:55;;;;;;;;;2.00;1.00;;;;;12.00;76.36;99615.63;5087206;27;45554;-81
2022/09/27 07:27:21;;;;;;;;;1.75;1.00;;;;;12.06;76.31;99623.31;5087585;27;45334;-81
2022/09/27 07:29:46;;;;;;;;;0.00;0.00;;;;;11.81;75.63;99581.94;5091718;27;45657;-81
2022/09/27 07:32:12;;;;;;;;;1.75;0.75;;;;;12.09;76.00;99620.53;5076448;27;45504;-80
2022/09/27 07:34:37;;;;;;;;;0.00;0.00;;;;;12.10;75.44;99622.28;5092589;27;45671;-81
2022/09/27 07:37:04;;;;;;;;;0.75;0.00;;;;;12.05;75.39;99609.19;5096654;27;45461;-81
2022/09/27 07:39:30;;;;;;;;;2.00;0.00;;;;;11.99;74.87;99584.75;5075878;27;46216;-82
2022/09/27 07:41:56;;;;;;;;;0.25;0.25;;;;;12.26;74.63;99628.63;5094752;27;45413;-81
2022/09/27 07:44:21;;;;;;;;;2.00;1.00;;;;;12.24;74.70;99627.84;5067730;27;45461;-82
2022/09/27 07:46:47;;;;;;;;;0.00;0.00;;;;;12.26;74.59;99623.34;5084775;27;45322;-82
2022/09/27 07:49:12;;;;;;;;;1.00;1.00;;;;;12.12;73.78;99572.72;5083550;27;46235;-81
2022/09/27 07:51:37;;;;;;;;;2.00;2.00;;;;;12.54;73.79;99642.50;5093335;27;47286;-82
2022/09/27 07:54:03;;;;;;;;;4.00;1.50;;;;;12.43;73.80;99603.22;5095396;27;45455;-81
2022/09/27 07:56:29;;;;;;;;;1.00;1.00;;;;;12.86;73.06;99656.16;5075779;27;45358;-82
2022/09/27 07:58:54;;;;;;;;;5.00;1.75;;;;;12.98;72.48;99624.66;5075929;27;45375;-82
2022/09/27 08:01:21;;;;;;;;;1.00;1.00;;;;;13.49;70.54;99653.34;5081229;27;45324;-82
2022/09/27 08:03:46;;;;;;;;;0.00;0.00;;;;;13.63;69.49;99624.34;5082723;27;45586;-80
2022/09/27 08:06:12;;;;;;;;;1.00;1.00;;;;;14.09;68.43;99652.28;5084031;27;45517;-82
2022/09/27 08:08:38;;;;;;;;;1.00;1.00;;;;;14.20;67.32;99658.78;5082467;27;45400;-80
2022/09/27 08:11:14;;;;;;;;;0.00;0.00;;;;;13.92;67.17;99631.84;5069764;27;45477;-81
2022/09/27 08:13:44;;;;;;;;;0.00;0.00;;;;;14.07;67.21;99640.88;5092777;27;45734;-81
2022/09/27 08:16:10;;;;;;;;;1.50;1.50;;;;;14.01;67.00;99629.63;5089511;27;45668;-81
2022/09/27 08:18:36;;;;;;;;;0.50;0.50;;;;;13.79;66.97;99607.69;5085611;27;45413;-81
2022/09/27 08:21:02;;;;;;;;;1.50;0.00;;;;;14.09;67.63;99669.09;5085252;27;45605;-81
2022/09/27 08:23:28;;;;;;;;;0.00;0.00;;;;;13.72;67.61;99633.66;5074837;27;45499;-81
2022/09/27 08:25:54;;;;;;;;;0.00;0.00;;;;;13.83;67.89;99662.34;5073966;27;45433;-81
2022/09/27 08:28:21;;;;;;;;;1.00;1.00;;;;;13.85;68.10;99666.69;5084338;27;45521;-81
2022/09/27 08:30:47;;;;;;;;;0.75;0.75;;;;;13.83;67.85;99657.94;5091912;27;45509;-81
2022/09/27 08:33:12;;;;;;;;;0.50;0.50;;;;;13.80;67.21;99660.72;5091819;27;45722;-80
2022/09/27 08:35:38;;;;;;;;;0.25;0.25;;;;;13.11;67.11;99544.50;5089265;27;45566;-80
2022/09/27 08:38:04;;;;;;;;;1.00;1.00;;;;;13.67;67.74;99619.75;5083238;27;46111;-80
2022/09/27 08:40:47;;;;;;;;;2.00;2.00;;;;;14.13;67.21;99691.06;5078799;27;45410;-80
2022/09/27 08:43:24;;;;;;;;;0.50;0.50;;;;;14.09;67.15;99689.47;5068657;28;45487;-81
2022/09/27 08:46:00;;;;;;;;;1.00;0.75;;;;;13.91;65.74;99669.97;5083958;27;45418;-80
2022/09/27 08:48:26;;;;;;;;;3.50;1.75;;;;;13.91;66.38;99691.22;5086502;27;45537;-80
2022/09/27 08:50:53;;;;;;;;;4.50;1.00;;;;;13.89;66.64;99698.41;5092412;27;45447;-81
2022/09/27 08:53:49;;;;;;;;;0.50;0.50;;;;;13.84;66.23;99696.81;5085118;27;45553;-80
2022/09/27 08:56:20;;;;;;;;;1.00;0.00;;;;;13.74;66.21;99678.75;5077590;27;45468;-80
2022/09/27 08:59:13;;;;;;;;;0.00;0.00;;;;;13.89;66.29;99693.94;5083788;27;46204;-81
2022/09/27 09:01:40;;;;;;;;;1.00;1.00;;;;;14.02;66.90;99695.09;5064128;27;45588;-81
2022/09/27 09:04:09;;;;;;;;;1.75;1.75;;;;;14.08;66.76;99693.09;5098954;27;45517;-80
2022/09/27 09:06:46;;;;;;;;;1.00;0.00;;;;;14.15;66.91;99690.06;5110515;27;45548;-80
2022/09/27 09:09:23;;;;;;;;;0.00;0.00;;;;;14.25;67.35;99685.13;5086687;27;45451;-82
2022/09/27 09:12:46;;;;;;;;;0.50;0.50;;;;;14.28;67.04;99684.97;5084668;27;45401;-81
2022/09/27 09:15:53;;;;;;;;;1.50;1.00;;;;;14.33;66.80;99693.59;4997953;28;45487;-82
2022/09/27 09:18:36;;;;;;;;;1.00;0.00;;;;;14.33;65.96;99698.91;4995368;28;45745;-82
2022/09/27 09:21:47;;;;;;;;;0.00;0.00;;;;;14.29;65.68;99702.66;5010148;28;46685;-82
2022/09/27 09:24:49;;;;;;;;;0.00;0.00;;;;;14.09;66.20;99654.94;5005152;28;45540;-82
2022/09/27 09:27:41;;;;;;;;;2.00;2.00;;;;;14.44;65.45;99685.09;5007670;28;45394;-82
2022/09/27 09:30:37;;;;;;;;;3.00;1.50;;;;;14.48;64.06;99661.84;5004989;28;45504;-81
2022/09/27 09:33:19;;;;;;;;;0.75;0.00;;;;;14.52;64.44;99668.75;4999710;28;47883;-84
2022/09/27 09:36:18;;;;;;;;;1.00;1.00;;;;;14.72;63.42;99673.09;4993578;28;45377;-81
2022/09/27 09:38:49;;;;;;;;;2.00;1.75;;;;;14.82;63.07;99663.69;4997919;28;45673;-81
2022/09/27 09:41:25;;;;;;;;;4.25;2.50;;;;;15.06;63.04;99660.66;5007028;28;45490;-82
2022/09/27 09:43:57;;;;;;;;;2.00;0.00;;;;;15.40;61.47;99664.19;4985125;28;45463;-82
2022/09/27 09:46:45;;;;;;;;;1.50;0.00;;;;;15.88;59.82;99646.47;4999945;28;45528;-81
2022/09/27 09:49:21;;;;;;;;;1.25;1.00;;;;;17.16;58.00;99636.28;4995495;28;45399;-82
2022/09/27 09:52:18;;;;;;;;;0.00;0.00;;;;;18.57;54.66;99644.13;5056187;27;45498;-82
2022/09/27 09:55:00;;;;;;;;;1.25;1.25;;;;;19.63;50.53;99637.66;5079512;27;45712;-82
2022/09/27 09:57:32;;;;;;;;;0.00;0.00;;;;;20.73;47.34;99633.13;5083234;27;45469;-83
2022/09/27 10:00:12;;;;;;;;;1.25;1.00;;;;;21.47;45.44;99612.03;5094722;27;45510;-82
2022/09/27 10:02:40;;;;;;;;;0.75;0.75;;;;;21.71;43.99;99616.44;5085496;27;45408;-81
2022/09/27 10:05:17;;;;;;;;;2.00;2.00;;;;;21.52;43.82;99619.78;5082691;27;45761;-81
2022/09/27 10:07:43;;;;;;;;;3.00;0.00;;;;;21.21;44.28;99587.28;5079647;27;45569;-81
2022/09/27 10:10:14;;;;;;;;;2.50;0.00;;;;;20.89;44.08;99592.50;5088512;27;45468;-82
2022/09/27 10:12:39;;;;;;;;;2.00;0.00;;;;;20.70;44.71;99612.72;5088239;27;45370;-81
2022/09/27 10:15:05;;;;;;;;;0.75;0.75;;;;;20.34;45.13;99616.38;5070664;27;47055;-82
2022/09/27 10:17:40;;;;;;;;;0.00;0.00;;;;;20.20;45.33;99615.59;5091773;27;45751;-81
2022/09/27 10:20:06;;;;;;;;;1.00;1.00;;;;;20.16;44.64;99602.53;5079031;27;45532;-81
2022/09/27 10:22:40;;;;;;;;;0.00;0.00;;;;;19.99;45.58;99599.28;5091469;27;45484;-81
2022/09/27 10:25:07;;;;;;;;;0.00;0.00;;;;;20.00;46.00;99597.47;5086975;27;46118;-82
2022/09/27 10:27:49;;;;;;;;;0.00;0.00;;;;;20.30;46.20;99598.81;5097072;27;45392;-82
2022/09/27 10:30:25;;;;;;;;;1.00;1.00;;;;;20.09;45.90;99601.28;5085787;27;45973;-82
2022/09/27 10:32:59;;;;;;;;;1.00;1.00;;;;;19.56;46.69;99567.59;5082280;27;45615;-82
2022/09/27 10:35:40;;;;;;;;;3.75;1.25;;;;;19.44;47.88;99592.59;5072300;27;45548;-81
2022/09/27 10:38:15;;;;;;;;;0.00;0.00;;;;;18.92;48.76;99598.03;5093208;27;45572;-82
2022/09/27 10:40:42;;;;;;;;;0.00;0.00;;;;;18.26;51.18;99597.19;5095703;27;45480;-80
2022/09/27 10:43:27;;;;;;;;;2.25;0.75;;;;;17.88;53.34;99616.59;5090838;27;45497;-80
2022/09/27 10:46:11;;;;;;;;;0.75;0.00;;;;;17.51;55.42;99619.00;5090069;27;45376;-80
2022/09/27 10:48:38;;;;;;;;;0.00;0.00;;;;;17.01;57.17;99632.72;5070084;28;45537;-81
2022/09/27 10:51:06;;;;;;;;;1.00;0.00;;;;;16.72;58.39;99629.16;5095856;27;45390;-80
2022/09/27 10:53:34;;;;;;;;;0.00;0.00;;;;;16.48;59.63;99637.66;5078520;27;45310;-81
2022/09/27 10:56:00;;;;;;;;;0.00;0.00;;;;;16.28;60.35;99640.66;5099217;27;46167;-81
2022/09/27 10:58:31;;;;;;;;;0.00;0.00;;;;;16.10;61.51;99640.75;5104032;27;45468;-82
2022/09/27 11:01:04;;;;;;;;;0.75;0.25;;;;;15.88;62.11;99638.47;5098806;27;45323;-82
2022/09/27 11:03:32;;;;;;;;;0.25;0.25;;;;;15.61;63.19;99619.56;5093323;27;45514;-81
2022/09/27 11:05:58;;;;;;;;;2.50;0.25;;;;;15.74;63.40;99639.19;5091068;27;46466;-82
2022/09/27 11:08:32;;;;;;;;;0.00;0.00;;;;;15.69;63.07;99643.09;5090957;27;45547;-81
2022/09/27 11:11:12;;;;;;;;;0.00;0.00;;;;;15.68;63.37;99636.03;5080398;27;45375;-82
2022/09/27 11:13:39;;;;;;;;;0.50;0.50;;;;;15.49;63.87;99630.88;5083868;27;45488;-82
2022/09/27 11:16:33;;;;;;;;;1.00;1.00;;;;;15.51;63.99;99627.19;5088792;27;46497;-80
2022/09/27 11:19:26;;;;;;;;;1.00;1.00;;;;;15.42;63.91;99612.56;5085337;27;45579;-81
2022/09/27 11:22:03;;;;;;;;;1.25;1.25;;;;;15.36;63.02;99615.56;5071343;27;45628;-82
2022/09/27 11:24:53;;;;;;;;;1.00;1.00;;;;;15.32;63.52;99618.47;5075598;27;45460;-82
2022/09/27 11:27:34;;;;;;;;;1.00;1.00;;;;;15.37;64.35;99625.28;5077951;27;45598;-82
2022/09/27 11:30:13;;;;;;;;;0.00;0.00;;;;;15.35;62.75;99626.28;5082690;27;45465;-82
2022/09/27 11:32:50;;;;;;;;;0.00;0.00;;;;;15.31;64.29;99627.44;5078456;27;45773;-82
2022/09/27 11:35:27;;;;;;;;;1.00;1.00;;;;;15.27;63.40;99638.25;5087365;27;45558;-82
2022/09/27 11:38:27;;;;;;;;;1.00;1.00;;;;;15.24;64.06;99630.44;5091483;27;45616;-82
2022/09/27 11:41:22;;;;;;;;;2.50;0.00;;;;;15.18;63.31;99632.53;5102227;27;45611;-82
2022/09/27 11:43:48;;;;;;;;;2.75;0.75;;;;;15.03;62.68;99624.47;5110078;27;45506;-81
2022/09/27 11:46:25;;;;;;;;;1.00;0.00;;;;;15.02;63.37;99629.88;5069744;27;45541;-87
2022/09/27 11:49:34;;;;;;;;;1.00;0.00;;;;;14.87;64.49;99588.97;5092683;27;46003;-81
2022/09/27 11:52:21;;;;;;;;;0.00;0.00;;;;;15.10;63.05;99612.53;5057730;27;45414;-80
2022/09/27 11:55:14;;;;;;;;;0.00;0.00;;;;;15.18;62.52;99605.94;5091611;27;45272;-81
2022/09/27 11:58:01;;;;;;;;;1.00;1.00;;;;;15.33;63.45;99602.41;5069703;27;45596;-81
2022/09/27 12:00:55;;;;;;;;;2.00;0.75;;;;;16.09;63.78;99603.53;5095019;27;45608;-81